sensor_id;sensor_type;location;lat;lon;timestamp;P1;durP1;ratioP1;P2;durP2;ratioP2
74791;SDS011;63319;46.046;17.802;2023-06-22T00:00:31;5.53;;;3.65;;
74791;SDS011;63319;46.046;17.802;2023-06-22T00:03:35;5.88;;;3.47;;
74791;SDS011;63319;46.046;17.802;2023-06-22T00:06:38;6.25;;;3.75;;
74791;SDS011;63319;46.046;17.802;2023-06-22T00:09:41;5.78;;;3.47;;
74791;SDS011;63319;46.046;17.802;2023-06-22T00:12:44;5.63;;;3.23;;
74791;SDS011;63319;46.046;17.802;2023-06-22T00:15:47;5.93;;;3.60;;
74791;SDS011;63319;46.046;17.802;2023-06-22T00:18:50;5.45;;;3.60;;
74791;SDS011;63319;46.046;17.802;2023-06-22T00:21:53;5.82;;;3.67;;
74791;SDS011;63319;46.046;17.802;2023-06-22T00:24:56;5.85;;;3.92;;
74791;SDS011;63319;46.046;17.802;2023-06-22T00:27:59;6.03;;;4.00;;
74791;SDS011;63319;46.046;17.802;2023-06-22T00:31:02;6.60;;;4.03;;
74791;SDS011;63319;46.046;17.802;2023-06-22T00:34:05;6.20;;;3.80;;
74791;SDS011;63319;46.046;17.802;2023-06-22T00:37:09;5.90;;;3.65;;
74791;SDS011;63319;46.046;17.802;2023-06-22T00:40:13;6.28;;;3.92;;
74791;SDS011;63319;46.046;17.802;2023-06-22T00:43:17;6.10;;;3.87;;
74791;SDS011;63319;46.046;17.802;2023-06-22T00:46:20;5.78;;;3.67;;
74791;SDS011;63319;46.046;17.802;2023-06-22T00:49:25;6.25;;;3.88;;
74791;SDS011;63319;46.046;17.802;2023-06-22T00:52:32;5.25;;;3.60;;
74791;SDS011;63319;46.046;17.802;2023-06-22T00:55:38;6.32;;;4.25;;
74791;SDS011;63319;46.046;17.802;2023-06-22T00:58:46;6.30;;;4.10;;
74791;SDS011;63319;46.046;17.802;2023-06-22T01:01:51;6.20;;;3.67;;
74791;SDS011;63319;46.046;17.802;2023-06-22T01:04:54;6.75;;;4.22;;
74791;SDS011;63319;46.046;17.802;2023-06-22T01:08:04;5.20;;;3.45;;
74791;SDS011;63319;46.046;17.802;2023-06-22T01:11:28;5.70;;;3.70;;
74791;SDS011;63319;46.046;17.802;2023-06-22T01:14:49;5.57;;;3.90;;
74791;SDS011;63319;46.046;17.802;2023-06-22T01:17:57;5.63;;;3.83;;
74791;SDS011;63319;46.046;17.802;2023-06-22T01:21:02;6.10;;;4.03;;
74791;SDS011;63319;46.046;17.802;2023-06-22T01:30:39;6.73;;;4.07;;
74791;SDS011;63319;46.046;17.802;2023-06-22T01:33:43;5.45;;;3.60;;
74791;SDS011;63319;46.046;17.802;2023-06-22T01:36:49;5.78;;;3.63;;
74791;SDS011;63319;46.046;17.802;2023-06-22T01:39:53;5.32;;;3.63;;
74791;SDS011;63319;46.046;17.802;2023-06-22T01:42:59;5.32;;;3.55;;
74791;SDS011;63319;46.046;17.802;2023-06-22T01:46:03;6.07;;;3.77;;
74791;SDS011;63319;46.046;17.802;2023-06-22T01:49:06;6.15;;;3.70;;
74791;SDS011;63319;46.046;17.802;2023-06-22T01:52:11;5.78;;;3.90;;
74791;SDS011;63319;46.046;17.802;2023-06-22T01:55:14;6.30;;;3.75;;
74791;SDS011;63319;46.046;17.802;2023-06-22T01:58:17;5.80;;;3.65;;
74791;SDS011;63319;46.046;17.802;2023-06-22T02:01:27;5.70;;;3.80;;
74791;SDS011;63319;46.046;17.802;2023-06-22T02:04:44;5.88;;;4.10;;
74791;SDS011;63319;46.046;17.802;2023-06-22T02:07:58;5.70;;;3.60;;
74791;SDS011;63319;46.046;17.802;2023-06-22T02:11:09;6.25;;;3.97;;
74791;SDS011;63319;46.046;17.802;2023-06-22T02:17:38;5.67;;;3.57;;
74791;SDS011;63319;46.046;17.802;2023-06-22T02:20:41;6.15;;;3.80;;
74791;SDS011;63319;46.046;17.802;2023-06-22T02:23:44;5.10;;;3.55;;
74791;SDS011;63319;46.046;17.802;2023-06-22T02:26:47;5.68;;;3.55;;
74791;SDS011;63319;46.046;17.802;2023-06-22T02:29:50;6.50;;;3.70;;
74791;SDS011;63319;46.046;17.802;2023-06-22T02:32:53;5.43;;;3.23;;
74791;SDS011;63319;46.046;17.802;2023-06-22T02:36:01;5.57;;;3.58;;
74791;SDS011;63319;46.046;17.802;2023-06-22T02:39:07;5.50;;;3.70;;
74791;SDS011;63319;46.046;17.802;2023-06-22T02:42:11;5.60;;;3.47;;
74791;SDS011;63319;46.046;17.802;2023-06-22T02:45:14;5.68;;;3.30;;
74791;SDS011;63319;46.046;17.802;2023-06-22T02:48:18;5.57;;;3.60;;
74791;SDS011;63319;46.046;17.802;2023-06-22T02:51:21;5.45;;;3.55;;
74791;SDS011;63319;46.046;17.802;2023-06-22T02:54:25;6.05;;;3.60;;
74791;SDS011;63319;46.046;17.802;2023-06-22T02:57:29;6.35;;;3.85;;
74791;SDS011;63319;46.046;17.802;2023-06-22T03:00:32;6.05;;;3.70;;
74791;SDS011;63319;46.046;17.802;2023-06-22T03:03:38;5.53;;;3.17;;
74791;SDS011;63319;46.046;17.802;2023-06-22T03:06:41;5.22;;;3.17;;
74791;SDS011;63319;46.046;17.802;2023-06-22T03:09:44;7.10;;;4.03;;
74791;SDS011;63319;46.046;17.802;2023-06-22T03:12:48;6.28;;;3.55;;
74791;SDS011;63319;46.046;17.802;2023-06-22T03:15:51;5.75;;;3.58;;
74791;SDS011;63319;46.046;17.802;2023-06-22T03:18:55;5.67;;;3.90;;
74791;SDS011;63319;46.046;17.802;2023-06-22T03:21:59;5.70;;;3.40;;
74791;SDS011;63319;46.046;17.802;2023-06-22T03:25:03;6.00;;;3.90;;
74791;SDS011;63319;46.046;17.802;2023-06-22T03:28:08;7.13;;;3.70;;
74791;SDS011;63319;46.046;17.802;2023-06-22T03:31:11;5.47;;;3.47;;
74791;SDS011;63319;46.046;17.802;2023-06-22T03:34:15;5.13;;;3.17;;
74791;SDS011;63319;46.046;17.802;2023-06-22T03:37:18;5.63;;;3.70;;
74791;SDS011;63319;46.046;17.802;2023-06-22T03:40:21;6.05;;;3.78;;
74791;SDS011;63319;46.046;17.802;2023-06-22T03:43:25;5.70;;;3.38;;
74791;SDS011;63319;46.046;17.802;2023-06-22T03:46:28;5.38;;;3.78;;
74791;SDS011;63319;46.046;17.802;2023-06-22T03:49:31;5.37;;;3.33;;
74791;SDS011;63319;46.046;17.802;2023-06-22T03:52:34;5.40;;;3.50;;
74791;SDS011;63319;46.046;17.802;2023-06-22T03:55:37;5.55;;;3.45;;
74791;SDS011;63319;46.046;17.802;2023-06-22T03:58:43;6.30;;;3.20;;
74791;SDS011;63319;46.046;17.802;2023-06-22T04:01:47;6.03;;;3.53;;
74791;SDS011;63319;46.046;17.802;2023-06-22T04:04:50;6.33;;;3.40;;
74791;SDS011;63319;46.046;17.802;2023-06-22T04:07:53;4.95;;;3.45;;
74791;SDS011;63319;46.046;17.802;2023-06-22T04:10:56;4.97;;;2.90;;
74791;SDS011;63319;46.046;17.802;2023-06-22T04:13:59;5.25;;;3.28;;
74791;SDS011;63319;46.046;17.802;2023-06-22T04:17:02;4.97;;;3.20;;
74791;SDS011;63319;46.046;17.802;2023-06-22T04:20:05;5.80;;;3.70;;
74791;SDS011;63319;46.046;17.802;2023-06-22T04:23:09;6.57;;;3.63;;
74791;SDS011;63319;46.046;17.802;2023-06-22T04:26:12;6.15;;;3.53;;
74791;SDS011;63319;46.046;17.802;2023-06-22T04:29:19;5.55;;;3.47;;
74791;SDS011;63319;46.046;17.802;2023-06-22T04:32:22;5.70;;;3.50;;
74791;SDS011;63319;46.046;17.802;2023-06-22T04:35:24;5.80;;;3.40;;
74791;SDS011;63319;46.046;17.802;2023-06-22T04:38:27;5.45;;;3.35;;
74791;SDS011;63319;46.046;17.802;2023-06-22T04:41:30;5.32;;;3.72;;
74791;SDS011;63319;46.046;17.802;2023-06-22T04:44:44;7.20;;;3.33;;
74791;SDS011;63319;46.046;17.802;2023-06-22T04:47:47;5.30;;;3.33;;
74791;SDS011;63319;46.046;17.802;2023-06-22T04:50:50;5.50;;;3.43;;
74791;SDS011;63319;46.046;17.802;2023-06-22T04:53:53;5.38;;;3.20;;
74791;SDS011;63319;46.046;17.802;2023-06-22T04:57:04;5.43;;;3.65;;
74791;SDS011;63319;46.046;17.802;2023-06-22T05:00:13;5.40;;;3.33;;
74791;SDS011;63319;46.046;17.802;2023-06-22T05:03:20;6.18;;;4.03;;
74791;SDS011;63319;46.046;17.802;2023-06-22T05:06:23;5.70;;;3.60;;
74791;SDS011;63319;46.046;17.802;2023-06-22T05:09:30;5.18;;;3.47;;
74791;SDS011;63319;46.046;17.802;2023-06-22T05:12:33;5.00;;;3.10;;
74791;SDS011;63319;46.046;17.802;2023-06-22T05:15:37;5.82;;;3.55;;
74791;SDS011;63319;46.046;17.802;2023-06-22T05:18:44;5.25;;;3.45;;
74791;SDS011;63319;46.046;17.802;2023-06-22T05:21:47;4.80;;;3.00;;
74791;SDS011;63319;46.046;17.802;2023-06-22T05:24:50;4.78;;;3.17;;
74791;SDS011;63319;46.046;17.802;2023-06-22T05:27:52;5.90;;;3.20;;
74791;SDS011;63319;46.046;17.802;2023-06-22T05:30:55;5.57;;;3.17;;
74791;SDS011;63319;46.046;17.802;2023-06-22T05:33:59;5.63;;;3.20;;
74791;SDS011;63319;46.046;17.802;2023-06-22T05:37:03;5.20;;;3.27;;
74791;SDS011;63319;46.046;17.802;2023-06-22T05:40:06;5.00;;;2.85;;
74791;SDS011;63319;46.046;17.802;2023-06-22T05:43:09;5.05;;;3.13;;
74791;SDS011;63319;46.046;17.802;2023-06-22T05:46:12;5.05;;;3.10;;
74791;SDS011;63319;46.046;17.802;2023-06-22T05:49:16;4.63;;;3.00;;
74791;SDS011;63319;46.046;17.802;2023-06-22T05:52:19;4.73;;;3.00;;
74791;SDS011;63319;46.046;17.802;2023-06-22T05:55:22;5.10;;;3.17;;
74791;SDS011;63319;46.046;17.802;2023-06-22T05:58:25;5.47;;;3.30;;
74791;SDS011;63319;46.046;17.802;2023-06-22T06:01:29;5.00;;;2.90;;
74791;SDS011;63319;46.046;17.802;2023-06-22T06:08:01;5.27;;;3.20;;
74791;SDS011;63319;46.046;17.802;2023-06-22T06:11:10;5.35;;;3.42;;
74791;SDS011;63319;46.046;17.802;2023-06-22T06:14:14;5.03;;;3.05;;
74791;SDS011;63319;46.046;17.802;2023-06-22T06:17:19;5.70;;;3.20;;
74791;SDS011;63319;46.046;17.802;2023-06-22T06:20:23;6.72;;;3.53;;
74791;SDS011;63319;46.046;17.802;2023-06-22T06:23:27;6.40;;;3.37;;
74791;SDS011;63319;46.046;17.802;2023-06-22T06:26:40;6.05;;;3.00;;
74791;SDS011;63319;46.046;17.802;2023-06-22T06:29:45;5.18;;;3.38;;
74791;SDS011;63319;46.046;17.802;2023-06-22T06:32:50;7.03;;;3.33;;
74791;SDS011;63319;46.046;17.802;2023-06-22T06:35:54;5.03;;;3.08;;
74791;SDS011;63319;46.046;17.802;2023-06-22T06:38:58;5.63;;;3.67;;
74791;SDS011;63319;46.046;17.802;2023-06-22T06:42:01;6.18;;;3.13;;
74791;SDS011;63319;46.046;17.802;2023-06-22T06:45:04;5.80;;;3.47;;
74791;SDS011;63319;46.046;17.802;2023-06-22T06:48:08;4.82;;;3.15;;
74791;SDS011;63319;46.046;17.802;2023-06-22T06:51:11;5.75;;;3.58;;
74791;SDS011;63319;46.046;17.802;2023-06-22T06:54:14;4.93;;;3.07;;
74791;SDS011;63319;46.046;17.802;2023-06-22T06:57:18;8.85;;;2.90;;
74791;SDS011;63319;46.046;17.802;2023-06-22T07:00:23;5.80;;;3.60;;
74791;SDS011;63319;46.046;17.802;2023-06-22T07:03:26;5.93;;;3.65;;
74791;SDS011;63319;46.046;17.802;2023-06-22T07:06:29;5.63;;;3.60;;
74791;SDS011;63319;46.046;17.802;2023-06-22T07:09:34;7.60;;;3.53;;
74791;SDS011;63319;46.046;17.802;2023-06-22T07:12:37;6.57;;;3.40;;
74791;SDS011;63319;46.046;17.802;2023-06-22T07:15:40;5.50;;;3.38;;
74791;SDS011;63319;46.046;17.802;2023-06-22T07:18:43;5.97;;;3.42;;
74791;SDS011;63319;46.046;17.802;2023-06-22T07:21:46;5.25;;;3.30;;
74791;SDS011;63319;46.046;17.802;2023-06-22T07:24:49;5.40;;;3.20;;
74791;SDS011;63319;46.046;17.802;2023-06-22T07:27:59;5.78;;;3.60;;
74791;SDS011;63319;46.046;17.802;2023-06-22T07:31:05;6.53;;;3.80;;
74791;SDS011;63319;46.046;17.802;2023-06-22T07:34:09;6.38;;;3.30;;
74791;SDS011;63319;46.046;17.802;2023-06-22T07:37:13;6.10;;;3.53;;
74791;SDS011;63319;46.046;17.802;2023-06-22T07:40:17;5.23;;;3.30;;
74791;SDS011;63319;46.046;17.802;2023-06-22T07:43:20;5.80;;;3.80;;
74791;SDS011;63319;46.046;17.802;2023-06-22T07:46:28;6.35;;;3.47;;
74791;SDS011;63319;46.046;17.802;2023-06-22T07:49:32;5.50;;;3.60;;
74791;SDS011;63319;46.046;17.802;2023-06-22T07:52:36;6.45;;;3.70;;
74791;SDS011;63319;46.046;17.802;2023-06-22T07:55:40;5.87;;;3.43;;
74791;SDS011;63319;46.046;17.802;2023-06-22T07:58:43;6.70;;;3.53;;
74791;SDS011;63319;46.046;17.802;2023-06-22T08:01:50;5.65;;;3.80;;
74791;SDS011;63319;46.046;17.802;2023-06-22T08:04:57;5.97;;;3.47;;
74791;SDS011;63319;46.046;17.802;2023-06-22T08:08:17;5.57;;;3.63;;
74791;SDS011;63319;46.046;17.802;2023-06-22T08:11:20;6.43;;;4.13;;
74791;SDS011;63319;46.046;17.802;2023-06-22T08:14:29;5.30;;;3.42;;
74791;SDS011;63319;46.046;17.802;2023-06-22T08:17:33;5.65;;;3.88;;
74791;SDS011;63319;46.046;17.802;2023-06-22T08:20:40;5.93;;;3.30;;
74791;SDS011;63319;46.046;17.802;2023-06-22T08:23:44;7.57;;;4.15;;
74791;SDS011;63319;46.046;17.802;2023-06-22T08:26:50;6.20;;;3.53;;
74791;SDS011;63319;46.046;17.802;2023-06-22T08:29:54;6.68;;;4.03;;
74791;SDS011;63319;46.046;17.802;2023-06-22T08:33:01;6.28;;;3.65;;
74791;SDS011;63319;46.046;17.802;2023-06-22T08:36:04;5.97;;;3.40;;
74791;SDS011;63319;46.046;17.802;2023-06-22T08:39:09;6.70;;;4.15;;
74791;SDS011;63319;46.046;17.802;2023-06-22T08:42:12;7.43;;;4.30;;
74791;SDS011;63319;46.046;17.802;2023-06-22T08:45:15;6.13;;;4.15;;
74791;SDS011;63319;46.046;17.802;2023-06-22T08:48:18;6.30;;;4.47;;
74791;SDS011;63319;46.046;17.802;2023-06-22T08:51:21;6.63;;;4.13;;
74791;SDS011;63319;46.046;17.802;2023-06-22T08:54:25;9.25;;;4.55;;
74791;SDS011;63319;46.046;17.802;2023-06-22T08:57:28;7.97;;;4.60;;
74791;SDS011;63319;46.046;17.802;2023-06-22T09:00:33;6.60;;;4.40;;
74791;SDS011;63319;46.046;17.802;2023-06-22T09:03:37;8.32;;;5.10;;
74791;SDS011;63319;46.046;17.802;2023-06-22T09:06:57;7.32;;;4.43;;
74791;SDS011;63319;46.046;17.802;2023-06-22T09:10:05;8.00;;;5.07;;
74791;SDS011;63319;46.046;17.802;2023-06-22T09:13:08;6.50;;;3.93;;
74791;SDS011;63319;46.046;17.802;2023-06-22T09:16:12;11.07;;;5.10;;
74791;SDS011;63319;46.046;17.802;2023-06-22T09:19:16;7.40;;;5.45;;
74791;SDS011;63319;46.046;17.802;2023-06-22T09:22:20;8.88;;;5.65;;
74791;SDS011;63319;46.046;17.802;2023-06-22T09:25:26;7.60;;;5.75;;
74791;SDS011;63319;46.046;17.802;2023-06-22T09:28:36;14.50;;;6.20;;
74791;SDS011;63319;46.046;17.802;2023-06-22T09:31:40;9.40;;;6.97;;
74791;SDS011;63319;46.046;17.802;2023-06-22T09:34:44;11.40;;;8.23;;
74791;SDS011;63319;46.046;17.802;2023-06-22T09:37:47;14.15;;;7.75;;
74791;SDS011;63319;46.046;17.802;2023-06-22T09:40:51;12.25;;;8.60;;
74791;SDS011;63319;46.046;17.802;2023-06-22T09:43:54;11.67;;;8.67;;
74791;SDS011;63319;46.046;17.802;2023-06-22T09:46:58;11.15;;;8.02;;
74791;SDS011;63319;46.046;17.802;2023-06-22T09:50:04;11.15;;;8.32;;
74791;SDS011;63319;46.046;17.802;2023-06-22T09:53:07;10.32;;;8.60;;
74791;SDS011;63319;46.046;17.802;2023-06-22T09:56:10;12.48;;;8.48;;
74791;SDS011;63319;46.046;17.802;2023-06-22T09:59:17;11.43;;;7.90;;
74791;SDS011;63319;46.046;17.802;2023-06-22T10:02:20;11.38;;;8.10;;
74791;SDS011;63319;46.046;17.802;2023-06-22T10:05:25;15.23;;;8.60;;
74791;SDS011;63319;46.046;17.802;2023-06-22T10:08:28;14.90;;;8.95;;
74791;SDS011;63319;46.046;17.802;2023-06-22T10:11:31;11.05;;;8.85;;
74791;SDS011;63319;46.046;17.802;2023-06-22T10:14:37;11.23;;;8.07;;
74791;SDS011;63319;46.046;17.802;2023-06-22T10:17:40;12.15;;;8.93;;
74791;SDS011;63319;46.046;17.802;2023-06-22T10:21:04;11.25;;;9.23;;
74791;SDS011;63319;46.046;17.802;2023-06-22T10:24:06;11.10;;;8.50;;
74791;SDS011;63319;46.046;17.802;2023-06-22T10:27:10;11.10;;;8.68;;
74791;SDS011;63319;46.046;17.802;2023-06-22T10:30:14;15.37;;;8.87;;
74791;SDS011;63319;46.046;17.802;2023-06-22T10:33:17;12.70;;;9.30;;
74791;SDS011;63319;46.046;17.802;2023-06-22T10:36:23;12.43;;;8.40;;
74791;SDS011;63319;46.046;17.802;2023-06-22T10:39:26;12.57;;;8.27;;
74791;SDS011;63319;46.046;17.802;2023-06-22T10:42:29;13.27;;;8.27;;
74791;SDS011;63319;46.046;17.802;2023-06-22T10:45:32;9.80;;;8.07;;
74791;SDS011;63319;46.046;17.802;2023-06-22T10:48:35;14.35;;;8.02;;
74791;SDS011;63319;46.046;17.802;2023-06-22T10:51:38;12.00;;;8.07;;
74791;SDS011;63319;46.046;17.802;2023-06-22T10:54:41;12.63;;;8.45;;
74791;SDS011;63319;46.046;17.802;2023-06-22T10:57:44;13.52;;;8.55;;
74791;SDS011;63319;46.046;17.802;2023-06-22T11:00:49;13.87;;;8.40;;
74791;SDS011;63319;46.046;17.802;2023-06-22T11:03:52;12.95;;;8.57;;
74791;SDS011;63319;46.046;17.802;2023-06-22T11:06:55;14.63;;;8.43;;
74791;SDS011;63319;46.046;17.802;2023-06-22T11:09:58;10.77;;;8.38;;
74791;SDS011;63319;46.046;17.802;2023-06-22T11:13:01;12.75;;;8.65;;
74791;SDS011;63319;46.046;17.802;2023-06-22T11:16:06;10.17;;;7.80;;
74791;SDS011;63319;46.046;17.802;2023-06-22T11:19:12;10.65;;;7.88;;
74791;SDS011;63319;46.046;17.802;2023-06-22T11:22:17;12.65;;;8.55;;
74791;SDS011;63319;46.046;17.802;2023-06-22T11:25:20;10.75;;;8.38;;
74791;SDS011;63319;46.046;17.802;2023-06-22T11:28:22;10.05;;;7.93;;
74791;SDS011;63319;46.046;17.802;2023-06-22T11:31:25;13.37;;;8.00;;
74791;SDS011;63319;46.046;17.802;2023-06-22T11:34:29;10.20;;;7.50;;
74791;SDS011;63319;46.046;17.802;2023-06-22T11:37:32;11.07;;;8.25;;
74791;SDS011;63319;46.046;17.802;2023-06-22T11:40:35;11.38;;;7.95;;
74791;SDS011;63319;46.046;17.802;2023-06-22T11:43:38;12.20;;;8.05;;
74791;SDS011;63319;46.046;17.802;2023-06-22T11:46:41;10.07;;;7.87;;
74791;SDS011;63319;46.046;17.802;2023-06-22T11:49:44;10.65;;;8.20;;
74791;SDS011;63319;46.046;17.802;2023-06-22T11:52:46;9.63;;;7.65;;
74791;SDS011;63319;46.046;17.802;2023-06-22T11:55:49;10.65;;;7.70;;
74791;SDS011;63319;46.046;17.802;2023-06-22T11:58:53;11.05;;;7.65;;
74791;SDS011;63319;46.046;17.802;2023-06-22T12:01:57;10.57;;;7.13;;
74791;SDS011;63319;46.046;17.802;2023-06-22T12:05:01;10.13;;;7.45;;
74791;SDS011;63319;46.046;17.802;2023-06-22T12:08:10;10.13;;;7.75;;
74791;SDS011;63319;46.046;17.802;2023-06-22T12:11:24;11.13;;;8.10;;
74791;SDS011;63319;46.046;17.802;2023-06-22T12:14:30;11.18;;;7.80;;
74791;SDS011;63319;46.046;17.802;2023-06-22T12:17:34;10.30;;;7.70;;
74791;SDS011;63319;46.046;17.802;2023-06-22T12:20:37;11.68;;;8.10;;
74791;SDS011;63319;46.046;17.802;2023-06-22T12:23:43;10.38;;;7.43;;
74791;SDS011;63319;46.046;17.802;2023-06-22T12:26:47;9.68;;;7.57;;
74791;SDS011;63319;46.046;17.802;2023-06-22T12:29:51;11.05;;;7.50;;
74791;SDS011;63319;46.046;17.802;2023-06-22T12:32:54;10.00;;;7.70;;
74791;SDS011;63319;46.046;17.802;2023-06-22T12:35:58;11.50;;;7.78;;
74791;SDS011;63319;46.046;17.802;2023-06-22T12:39:01;11.20;;;7.72;;
74791;SDS011;63319;46.046;17.802;2023-06-22T12:42:04;9.23;;;6.85;;
74791;SDS011;63319;46.046;17.802;2023-06-22T12:45:08;10.25;;;7.35;;
74791;SDS011;63319;46.046;17.802;2023-06-22T12:48:11;9.00;;;6.77;;
74791;SDS011;63319;46.046;17.802;2023-06-22T12:51:24;11.27;;;7.25;;
74791;SDS011;63319;46.046;17.802;2023-06-22T12:54:27;9.30;;;7.80;;
74791;SDS011;63319;46.046;17.802;2023-06-22T12:57:36;9.15;;;7.15;;
74791;SDS011;63319;46.046;17.802;2023-06-22T13:00:39;9.07;;;7.05;;
74791;SDS011;63319;46.046;17.802;2023-06-22T13:03:42;11.47;;;7.80;;
74791;SDS011;63319;46.046;17.802;2023-06-22T13:06:45;9.10;;;7.32;;
74791;SDS011;63319;46.046;17.802;2023-06-22T13:09:53;9.15;;;7.20;;
74791;SDS011;63319;46.046;17.802;2023-06-22T13:12:56;10.15;;;7.18;;
74791;SDS011;63319;46.046;17.802;2023-06-22T13:16:03;10.13;;;7.43;;
74791;SDS011;63319;46.046;17.802;2023-06-22T13:19:06;9.17;;;6.90;;
74791;SDS011;63319;46.046;17.802;2023-06-22T13:22:30;8.93;;;6.75;;
74791;SDS011;63319;46.046;17.802;2023-06-22T13:25:34;11.00;;;7.53;;
74791;SDS011;63319;46.046;17.802;2023-06-22T13:28:37;9.40;;;6.50;;
74791;SDS011;63319;46.046;17.802;2023-06-22T13:31:40;9.70;;;7.25;;
74791;SDS011;63319;46.046;17.802;2023-06-22T13:34:43;9.13;;;7.07;;
74791;SDS011;63319;46.046;17.802;2023-06-22T13:37:46;8.93;;;6.32;;
74791;SDS011;63319;46.046;17.802;2023-06-22T13:40:49;10.00;;;6.90;;
74791;SDS011;63319;46.046;17.802;2023-06-22T13:43:52;10.45;;;7.90;;
74791;SDS011;63319;46.046;17.802;2023-06-22T13:46:55;9.43;;;6.97;;
74791;SDS011;63319;46.046;17.802;2023-06-22T13:49:58;8.87;;;6.60;;
74791;SDS011;63319;46.046;17.802;2023-06-22T13:53:03;10.63;;;7.00;;
74791;SDS011;63319;46.046;17.802;2023-06-22T13:56:06;9.82;;;7.15;;
74791;SDS011;63319;46.046;17.802;2023-06-22T13:59:08;9.55;;;7.32;;
74791;SDS011;63319;46.046;17.802;2023-06-22T14:02:12;9.82;;;7.10;;
74791;SDS011;63319;46.046;17.802;2023-06-22T14:05:15;10.03;;;6.80;;
74791;SDS011;63319;46.046;17.802;2023-06-22T14:08:18;10.00;;;7.00;;
74791;SDS011;63319;46.046;17.802;2023-06-22T14:11:45;10.85;;;6.95;;
74791;SDS011;63319;46.046;17.802;2023-06-22T14:14:48;9.98;;;6.78;;
74791;SDS011;63319;46.046;17.802;2023-06-22T14:17:51;10.00;;;7.63;;
74791;SDS011;63319;46.046;17.802;2023-06-22T14:20:54;8.97;;;6.50;;
74791;SDS011;63319;46.046;17.802;2023-06-22T14:23:57;9.15;;;6.97;;
74791;SDS011;63319;46.046;17.802;2023-06-22T14:27:00;11.00;;;6.95;;
74791;SDS011;63319;46.046;17.802;2023-06-22T14:30:06;9.25;;;6.47;;
74791;SDS011;63319;46.046;17.802;2023-06-22T14:33:09;8.85;;;7.00;;
74791;SDS011;63319;46.046;17.802;2023-06-22T14:36:12;8.97;;;6.60;;
74791;SDS011;63319;46.046;17.802;2023-06-22T14:39:20;10.30;;;7.13;;
74791;SDS011;63319;46.046;17.802;2023-06-22T14:42:24;8.82;;;6.22;;
74791;SDS011;63319;46.046;17.802;2023-06-22T14:45:29;9.55;;;6.78;;
74791;SDS011;63319;46.046;17.802;2023-06-22T14:48:32;8.20;;;5.90;;
74791;SDS011;63319;46.046;17.802;2023-06-22T14:51:35;7.90;;;6.73;;
74791;SDS011;63319;46.046;17.802;2023-06-22T14:54:38;9.00;;;6.65;;
74791;SDS011;63319;46.046;17.802;2023-06-22T14:57:40;8.98;;;6.30;;
74791;SDS011;63319;46.046;17.802;2023-06-22T15:00:43;9.88;;;6.40;;
74791;SDS011;63319;46.046;17.802;2023-06-22T15:03:47;9.77;;;7.22;;
74791;SDS011;63319;46.046;17.802;2023-06-22T15:06:58;9.00;;;6.63;;
74791;SDS011;63319;46.046;17.802;2023-06-22T15:10:01;9.43;;;6.18;;
74791;SDS011;63319;46.046;17.802;2023-06-22T15:13:04;8.73;;;6.75;;
74791;SDS011;63319;46.046;17.802;2023-06-22T15:16:08;9.65;;;6.75;;
74791;SDS011;63319;46.046;17.802;2023-06-22T15:19:11;10.90;;;6.50;;
74791;SDS011;63319;46.046;17.802;2023-06-22T15:22:15;9.40;;;6.30;;
74791;SDS011;63319;46.046;17.802;2023-06-22T15:25:20;8.43;;;6.85;;
74791;SDS011;63319;46.046;17.802;2023-06-22T15:28:23;10.60;;;6.85;;
74791;SDS011;63319;46.046;17.802;2023-06-22T15:31:27;10.15;;;6.53;;
74791;SDS011;63319;46.046;17.802;2023-06-22T15:34:30;8.50;;;6.20;;
74791;SDS011;63319;46.046;17.802;2023-06-22T15:37:33;8.53;;;6.27;;
74791;SDS011;63319;46.046;17.802;2023-06-22T15:40:36;8.82;;;6.32;;
74791;SDS011;63319;46.046;17.802;2023-06-22T15:43:39;9.10;;;6.75;;
74791;SDS011;63319;46.046;17.802;2023-06-22T15:46:42;8.55;;;6.32;;
74791;SDS011;63319;46.046;17.802;2023-06-22T15:49:45;8.45;;;6.80;;
74791;SDS011;63319;46.046;17.802;2023-06-22T15:52:47;8.63;;;5.93;;
74791;SDS011;63319;46.046;17.802;2023-06-22T15:55:55;9.82;;;7.05;;
74791;SDS011;63319;46.046;17.802;2023-06-22T15:58:59;10.07;;;7.07;;
74791;SDS011;63319;46.046;17.802;2023-06-22T16:02:03;8.18;;;6.10;;
74791;SDS011;63319;46.046;17.802;2023-06-22T16:05:06;11.70;;;6.93;;
74791;SDS011;63319;46.046;17.802;2023-06-22T16:08:10;8.80;;;6.50;;
74791;SDS011;63319;46.046;17.802;2023-06-22T16:11:16;9.02;;;6.40;;
74791;SDS011;63319;46.046;17.802;2023-06-22T16:14:19;8.13;;;5.82;;
74791;SDS011;63319;46.046;17.802;2023-06-22T16:17:22;9.20;;;6.30;;
74791;SDS011;63319;46.046;17.802;2023-06-22T16:20:26;11.52;;;6.55;;
74791;SDS011;63319;46.046;17.802;2023-06-22T16:23:29;11.07;;;6.10;;
74791;SDS011;63319;46.046;17.802;2023-06-22T16:26:39;8.80;;;6.22;;
74791;SDS011;63319;46.046;17.802;2023-06-22T16:29:44;9.20;;;6.60;;
74791;SDS011;63319;46.046;17.802;2023-06-22T16:32:54;8.57;;;5.88;;
74791;SDS011;63319;46.046;17.802;2023-06-22T16:36:00;8.43;;;6.40;;
74791;SDS011;63319;46.046;17.802;2023-06-22T16:39:03;9.57;;;6.17;;
74791;SDS011;63319;46.046;17.802;2023-06-22T16:42:07;10.60;;;6.47;;
74791;SDS011;63319;46.046;17.802;2023-06-22T16:45:10;9.20;;;6.85;;
74791;SDS011;63319;46.046;17.802;2023-06-22T16:48:16;8.57;;;6.03;;
74791;SDS011;63319;46.046;17.802;2023-06-22T16:51:19;8.27;;;6.03;;
74791;SDS011;63319;46.046;17.802;2023-06-22T16:54:22;9.10;;;6.13;;
74791;SDS011;63319;46.046;17.802;2023-06-22T16:57:26;8.15;;;5.20;;
74791;SDS011;63319;46.046;17.802;2023-06-22T17:00:32;8.52;;;5.82;;
74791;SDS011;63319;46.046;17.802;2023-06-22T17:03:39;9.02;;;6.15;;
74791;SDS011;63319;46.046;17.802;2023-06-22T17:06:48;8.32;;;5.88;;
74791;SDS011;63319;46.046;17.802;2023-06-22T17:09:57;8.30;;;5.97;;
74791;SDS011;63319;46.046;17.802;2023-06-22T17:13:02;8.68;;;6.10;;
74791;SDS011;63319;46.046;17.802;2023-06-22T17:16:06;9.30;;;5.75;;
74791;SDS011;63319;46.046;17.802;2023-06-22T17:19:12;8.45;;;5.82;;
74791;SDS011;63319;46.046;17.802;2023-06-22T17:22:15;7.93;;;6.20;;
74791;SDS011;63319;46.046;17.802;2023-06-22T17:25:18;7.93;;;5.50;;
74791;SDS011;63319;46.046;17.802;2023-06-22T17:28:24;8.20;;;5.90;;
74791;SDS011;63319;46.046;17.802;2023-06-22T17:31:38;11.70;;;6.82;;
74791;SDS011;63319;46.046;17.802;2023-06-22T17:34:52;8.60;;;5.80;;
74791;SDS011;63319;46.046;17.802;2023-06-22T17:37:57;8.77;;;6.40;;
74791;SDS011;63319;46.046;17.802;2023-06-22T17:41:04;7.50;;;5.63;;
74791;SDS011;63319;46.046;17.802;2023-06-22T17:44:10;9.48;;;6.43;;
74791;SDS011;63319;46.046;17.802;2023-06-22T17:47:24;9.90;;;6.53;;
74791;SDS011;63319;46.046;17.802;2023-06-22T17:50:28;8.35;;;5.63;;
74791;SDS011;63319;46.046;17.802;2023-06-22T17:53:31;7.57;;;5.93;;
74791;SDS011;63319;46.046;17.802;2023-06-22T17:56:34;7.90;;;5.63;;
74791;SDS011;63319;46.046;17.802;2023-06-22T17:59:37;7.85;;;5.78;;
74791;SDS011;63319;46.046;17.802;2023-06-22T18:02:40;8.15;;;5.75;;
74791;SDS011;63319;46.046;17.802;2023-06-22T18:05:46;8.13;;;5.80;;
74791;SDS011;63319;46.046;17.802;2023-06-22T18:08:50;8.18;;;6.20;;
74791;SDS011;63319;46.046;17.802;2023-06-22T18:11:54;11.17;;;6.47;;
74791;SDS011;63319;46.046;17.802;2023-06-22T18:15:02;8.48;;;5.95;;
74791;SDS011;63319;46.046;17.802;2023-06-22T18:18:05;8.32;;;5.57;;
74791;SDS011;63319;46.046;17.802;2023-06-22T18:21:10;7.78;;;5.72;;
74791;SDS011;63319;46.046;17.802;2023-06-22T18:24:18;8.40;;;5.88;;